PATK Airport Information

Runway Information
Runway 18 Length 3500 ft width 75 ft
Elevation 355 ft Threshold 0 ft Heading 207
Runway 36 Length 3500 ft Width 75 ft
Elevation 346 ft Threshold 0 ft Heading 27
Airport Frequencies
Airport Navaids
Type NDB Name Peters Creek Frequency 305 KHZ
Type VOR-DME Name Talkeetna Frequency 116200 KHZ
Airport Weather Information & NOTAM
ADDS - METARS form results

(2026 UTC 16 April 2021)
Data provider http://aviationweather.gov/metar/data/
 
METAR text: PATK 161953Z 28005KT 10SM CLR 07/M05 A3047 RMK AO2 SLP322 T00721050
Conditions at: PATK (TALKEETNA , AK, US) observed 1953 UTC 16 April 2021
Temperature: 7.2°C (45°F)
Dewpoint: -5.0°C (23°F) [RH = 41%]
Pressure (altimeter): 30.47 inches Hg (1031.9 mb)
[Sea-level pressure: 1032.2 mb]
Winds: from the W (280 degrees) at 6 MPH (5 knots; 2.6 m/s)
Visibility: 10 or more miles (16+ km)
Ceiling: at least 12,000 feet AGL
Clouds: sky clear below 12,000 feet AGL
Weather: no significant weather observed at this time

Forecast for: PATK (TALKEETNA , AK, US)
Text: PATK 161741Z 1618/1718 VRB05KT P6SM SKC
Forecast period: 1800 UTC 16 April 2021 to 1800 UTC 17 April 2021
Forecast type: FROM: standard forecast or significant change
Winds: variable direction winds at 6 MPH (5 knots; 2.6 m/s)
Visibility: 6 or more miles (10+ km)
Clouds: clear skies
Weather: no significant weather forecast for this period